createdAt,value
2018-12-17T00:00:02.150Z,0
2018-12-17T00:00:42.713Z,0
2018-12-17T00:01:23.270Z,0
2018-12-17T00:02:03.875Z,0
2018-12-17T00:02:44.460Z,0
2018-12-17T00:03:24.993Z,0
2018-12-17T00:04:05.551Z,0
2018-12-17T00:04:46.363Z,0
2018-12-17T00:05:26.929Z,0
2018-12-17T00:06:07.487Z,0
2018-12-17T00:06:48.056Z,0
2018-12-17T00:07:28.645Z,0
2018-12-17T00:08:09.218Z,0
2018-12-17T00:08:49.836Z,0
2018-12-17T00:09:30.433Z,0
2018-12-17T00:10:11.010Z,0
2018-12-17T00:10:51.551Z,0
2018-12-17T00:11:32.134Z,0
2018-12-17T00:12:16.460Z,0
2018-12-17T00:12:53.274Z,0
2018-12-17T00:13:33.843Z,0
2018-12-17T00:14:14.421Z,0
2018-12-17T00:14:54.967Z,0
2018-12-17T00:15:35.544Z,0
2018-12-17T00:16:16.130Z,0
2018-12-17T00:16:56.699Z,0
2018-12-17T00:17:37.253Z,0
2018-12-17T00:18:17.823Z,0
2018-12-17T00:18:58.447Z,0
2018-12-17T00:19:39.002Z,0
2018-12-17T00:20:19.602Z,0
2018-12-17T00:21:00.179Z,0
2018-12-17T00:21:40.743Z,0
2018-12-17T00:22:21.299Z,0
2018-12-17T00:23:01.862Z,0
2018-12-17T00:23:42.414Z,0
2018-12-17T00:24:23.019Z,0
2018-12-17T00:25:03.565Z,0
2018-12-17T00:25:44.131Z,0
2018-12-17T00:26:24.691Z,0
2018-12-17T00:27:05.244Z,0
2018-12-17T00:27:45.797Z,0
2018-12-17T00:28:26.339Z,0
2018-12-17T00:29:06.899Z,0
2018-12-17T00:29:47.511Z,0
2018-12-17T00:30:28.066Z,0
2018-12-17T00:31:08.631Z,0
2018-12-17T00:31:49.190Z,0
2018-12-17T00:32:29.751Z,0
2018-12-17T00:33:10.442Z,0
2018-12-17T00:33:50.991Z,0
2018-12-17T00:34:31.796Z,0
2018-12-17T00:35:12.370Z,0
2018-12-17T00:35:52.936Z,0
2018-12-17T00:36:33.509Z,0
2018-12-17T00:37:14.059Z,0
2018-12-17T00:37:54.616Z,0
2018-12-17T00:38:35.197Z,0
2018-12-17T00:39:15.764Z,0
2018-12-17T00:39:56.346Z,0
2018-12-17T00:40:36.922Z,0
2018-12-17T00:41:17.472Z,0
2018-12-17T00:41:58.046Z,0
2018-12-17T00:42:38.606Z,0
2018-12-17T00:43:19.171Z,0
2018-12-17T00:43:59.765Z,0
2018-12-17T00:44:40.339Z,0
2018-12-17T00:45:20.950Z,0
2018-12-17T00:46:01.554Z,0
2018-12-17T00:46:42.149Z,0
2018-12-17T00:47:22.759Z,0
2018-12-17T00:48:03.333Z,0
2018-12-17T00:48:43.906Z,0
2018-12-17T00:49:24.498Z,0
2018-12-17T00:50:05.058Z,0
2018-12-17T00:50:45.645Z,0
2018-12-17T00:51:26.197Z,0
2018-12-17T00:52:06.742Z,0
2018-12-17T00:52:47.322Z,0
2018-12-17T00:53:27.886Z,0
2018-12-17T00:54:08.465Z,0
2018-12-17T00:54:49.037Z,0
2018-12-17T00:55:29.629Z,0
2018-12-17T00:56:10.189Z,0
2018-12-17T00:56:50.743Z,0
2018-12-17T00:57:31.308Z,0
2018-12-17T00:58:15.068Z,0
2018-12-17T00:58:52.416Z,0
2018-12-17T00:59:32.971Z,0
2018-12-17T01:00:13.528Z,0
2018-12-17T01:00:54.082Z,0
2018-12-17T01:01:34.637Z,0
2018-12-17T01:02:15.217Z,0
2018-12-17T01:02:55.778Z,0
2018-12-17T01:03:36.344Z,0
2018-12-17T01:04:16.902Z,0
2018-12-17T01:04:57.455Z,0
2018-12-17T01:05:38.005Z,0
2018-12-17T01:06:18.591Z,0
2018-12-17T01:06:59.150Z,0
2018-12-17T01:07:39.717Z,0
2018-12-17T01:08:20.272Z,0
2018-12-17T01:09:00.832Z,0
2018-12-17T01:09:41.400Z,0
2018-12-17T01:10:21.957Z,0
2018-12-17T01:11:02.516Z,0
2018-12-17T01:11:43.065Z,0
2018-12-17T01:12:23.628Z,0
2018-12-17T01:13:04.180Z,0
2018-12-17T01:13:44.764Z,0
2018-12-17T01:14:25.300Z,0
2018-12-17T01:15:05.898Z,0
2018-12-17T01:15:46.488Z,0
2018-12-17T01:16:27.099Z,0
2018-12-17T01:17:07.656Z,0
2018-12-17T01:17:48.217Z,0
2018-12-17T01:18:28.765Z,0
2018-12-17T01:19:09.323Z,0
2018-12-17T01:19:49.879Z,0
2018-12-17T01:20:30.437Z,0
2018-12-17T01:21:10.983Z,0
2018-12-17T01:21:51.531Z,0
2018-12-17T01:22:32.114Z,0
2018-12-17T01:23:12.695Z,0
2018-12-17T01:23:53.230Z,0
2018-12-17T01:24:33.812Z,0
2018-12-17T01:25:14.365Z,0
2018-12-17T01:25:54.927Z,0
2018-12-17T01:26:35.507Z,0
2018-12-17T01:27:16.071Z,0
2018-12-17T01:27:56.625Z,0
2018-12-17T01:28:37.195Z,0
2018-12-17T01:29:17.745Z,0
2018-12-17T01:29:58.328Z,0
2018-12-17T01:30:38.911Z,0
2018-12-17T01:31:19.495Z,0
2018-12-17T01:32:00.044Z,0
2018-12-17T01:32:40.591Z,0
2018-12-17T01:33:21.248Z,0
2018-12-17T01:34:01.802Z,0
2018-12-17T01:34:42.586Z,0
2018-12-17T01:35:23.144Z,0
2018-12-17T01:36:03.735Z,0
2018-12-17T01:36:44.306Z,0
2018-12-17T01:37:24.873Z,0
2018-12-17T01:38:05.620Z,0
2018-12-17T01:38:46.190Z,0
2018-12-17T01:39:26.748Z,0
2018-12-17T01:40:07.360Z,0
2018-12-17T01:40:47.967Z,0
2018-12-17T01:41:28.520Z,0
2018-12-17T01:42:09.090Z,0
2018-12-17T01:42:49.675Z,0
2018-12-17T01:43:30.233Z,0
2018-12-17T01:44:10.845Z,0
2018-12-17T01:44:51.432Z,0
2018-12-17T01:45:31.998Z,0
2018-12-17T01:46:12.594Z,0
2018-12-17T01:46:53.148Z,0
2018-12-17T01:47:33.814Z,0
2018-12-17T01:48:14.369Z,0
2018-12-17T01:48:54.943Z,0
2018-12-17T01:49:35.512Z,0
2018-12-17T01:50:16.072Z,0
2018-12-17T01:50:56.621Z,0
2018-12-17T01:51:37.178Z,0
2018-12-17T01:52:17.729Z,0
2018-12-17T01:52:58.283Z,0
2018-12-17T01:53:38.843Z,0
2018-12-17T01:54:19.407Z,0
2018-12-17T01:54:59.993Z,0
2018-12-17T01:55:40.563Z,0
2018-12-17T01:56:21.123Z,0
2018-12-17T01:57:01.696Z,0
2018-12-17T01:57:42.249Z,0
2018-12-17T01:58:28.968Z,0
2018-12-17T01:59:03.358Z,0
2018-12-17T01:59:43.932Z,0
2018-12-17T02:00:24.487Z,0
2018-12-17T02:01:05.048Z,0
2018-12-17T02:01:45.602Z,0
2018-12-17T02:02:26.182Z,0
2018-12-17T02:03:06.744Z,0
2018-12-17T02:03:47.371Z,0
2018-12-17T02:04:27.918Z,0
2018-12-17T02:05:08.493Z,0
2018-12-17T02:05:49.041Z,0
2018-12-17T02:06:29.598Z,0
2018-12-17T02:07:10.162Z,0
2018-12-17T02:07:50.713Z,0
2018-12-17T02:08:31.259Z,0
2018-12-17T02:09:11.832Z,0
2018-12-17T02:09:52.387Z,0
2018-12-17T02:10:32.936Z,0
2018-12-17T02:11:13.479Z,0
2018-12-17T02:11:54.049Z,0
2018-12-17T02:12:34.591Z,0
2018-12-17T02:13:15.145Z,0
2018-12-17T02:13:55.688Z,0
2018-12-17T02:14:36.251Z,0
2018-12-17T02:15:16.813Z,0
2018-12-17T02:15:57.399Z,0
2018-12-17T02:16:37.991Z,0
2018-12-17T02:17:18.549Z,0
2018-12-17T02:17:59.093Z,0
2018-12-17T02:18:39.644Z,0
2018-12-17T02:19:20.195Z,0
2018-12-17T02:20:00.751Z,0
2018-12-17T02:20:41.299Z,0
2018-12-17T02:21:21.847Z,0
2018-12-17T02:22:02.398Z,0
2018-12-17T02:22:42.953Z,0
2018-12-17T02:23:23.508Z,0
2018-12-17T02:24:04.065Z,0
2018-12-17T02:24:44.615Z,0
2018-12-17T02:25:25.178Z,0
2018-12-17T02:26:05.744Z,0
2018-12-17T02:26:46.313Z,0
2018-12-17T02:27:26.868Z,0
2018-12-17T02:28:07.415Z,0
2018-12-17T02:28:48.013Z,0
2018-12-17T02:29:28.568Z,0
2018-12-17T02:30:09.114Z,0
2018-12-17T02:30:49.674Z,0
2018-12-17T02:31:30.215Z,0
2018-12-17T02:32:10.774Z,0
2018-12-17T02:32:51.323Z,0
2018-12-17T02:33:31.890Z,0
2018-12-17T02:34:12.444Z,0
2018-12-17T02:34:53.267Z,0
2018-12-17T02:35:33.831Z,0
2018-12-17T02:36:14.388Z,0
2018-12-17T02:36:54.941Z,0
2018-12-17T02:37:35.537Z,0
2018-12-17T02:38:16.149Z,0
2018-12-17T02:38:56.660Z,0
2018-12-17T02:39:37.215Z,0
2018-12-17T02:40:17.776Z,0
2018-12-17T02:40:58.339Z,0
2018-12-17T02:41:38.886Z,0
2018-12-17T02:42:19.435Z,0
2018-12-17T02:43:00.002Z,0
2018-12-17T02:43:40.594Z,0
2018-12-17T02:44:21.149Z,0
2018-12-17T02:45:01.721Z,0
2018-12-17T02:45:42.302Z,0
2018-12-17T02:46:22.831Z,0
2018-12-17T02:47:03.422Z,0
2018-12-17T02:47:43.987Z,0
2018-12-17T02:48:24.550Z,0
2018-12-17T02:49:05.113Z,0
2018-12-17T02:49:45.686Z,0
2018-12-17T02:50:26.229Z,0
2018-12-17T02:51:06.780Z,0
2018-12-17T02:51:47.362Z,0
2018-12-17T02:52:27.911Z,0
2018-12-17T02:53:08.461Z,0
2018-12-17T02:53:49.019Z,0
2018-12-17T02:54:29.589Z,0
2018-12-17T02:55:10.146Z,0
2018-12-17T02:55:50.701Z,0
2018-12-17T02:56:31.235Z,0
2018-12-17T02:57:11.801Z,0
2018-12-17T02:57:52.393Z,0
2018-12-17T02:58:32.940Z,0
2018-12-17T02:59:13.509Z,0
2018-12-17T02:59:54.052Z,0
2018-12-17T03:00:34.597Z,0
2018-12-17T03:01:15.182Z,0
2018-12-17T03:01:55.729Z,0
2018-12-17T03:02:36.287Z,0
2018-12-17T03:03:16.863Z,0
2018-12-17T03:03:57.399Z,0
2018-12-17T03:04:37.958Z,0
2018-12-17T03:05:18.498Z,0
2018-12-17T03:05:59.061Z,0
2018-12-17T03:06:39.618Z,0
2018-12-17T03:07:20.189Z,0
2018-12-17T03:08:00.752Z,0
2018-12-17T03:08:41.314Z,0
2018-12-17T03:09:21.877Z,0
2018-12-17T03:10:02.423Z,0
2018-12-17T03:10:42.980Z,0
2018-12-17T03:11:23.538Z,0
2018-12-17T03:12:04.119Z,0
2018-12-17T03:12:44.679Z,0
2018-12-17T03:13:25.223Z,0
2018-12-17T03:14:05.767Z,0
2018-12-17T03:14:46.328Z,0
2018-12-17T03:15:26.882Z,0
2018-12-17T03:16:07.453Z,0
2018-12-17T03:16:48.049Z,0
2018-12-17T03:17:28.730Z,0
2018-12-17T03:18:09.294Z,0
2018-12-17T03:18:49.917Z,0
2018-12-17T03:19:30.478Z,0
2018-12-17T03:20:11.144Z,0
2018-12-17T03:20:51.700Z,0
2018-12-17T03:21:32.265Z,0
2018-12-17T03:22:12.839Z,0
2018-12-17T03:22:53.405Z,0
2018-12-17T03:23:33.993Z,0
2018-12-17T03:24:14.543Z,0
2018-12-17T03:24:55.090Z,0
2018-12-17T03:25:35.643Z,0
2018-12-17T03:26:16.255Z,0
2018-12-17T03:28:29.056Z,0
2018-12-17T03:29:09.585Z,0
2018-12-17T03:29:50.128Z,0
2018-12-17T03:30:30.693Z,0
2018-12-17T03:31:11.269Z,0
2018-12-17T03:31:51.839Z,0
2018-12-17T03:32:32.392Z,0
2018-12-17T03:33:12.939Z,0
2018-12-17T03:33:53.515Z,0
2018-12-17T03:34:34.389Z,0
2018-12-17T03:35:14.930Z,0
2018-12-17T03:35:55.476Z,0
2018-12-17T03:36:36.050Z,0
2018-12-17T03:37:16.613Z,0
2018-12-17T03:37:57.170Z,0
2018-12-17T03:38:37.734Z,0
2018-12-17T03:39:18.317Z,0
2018-12-17T03:39:58.876Z,0
2018-12-17T03:40:39.426Z,0
2018-12-17T03:41:19.982Z,0
2018-12-17T03:42:00.533Z,0
2018-12-17T03:42:41.093Z,0
2018-12-17T03:43:21.631Z,0
2018-12-17T03:44:02.182Z,0
2018-12-17T03:44:42.770Z,0
2018-12-17T03:45:23.314Z,0
2018-12-17T03:46:03.852Z,0
2018-12-17T03:46:44.405Z,0
2018-12-17T03:47:24.959Z,0
2018-12-17T03:48:05.492Z,0
2018-12-17T03:48:46.037Z,0
2018-12-17T03:49:26.602Z,0
2018-12-17T03:50:07.149Z,0
2018-12-17T03:50:47.731Z,0
2018-12-17T03:51:28.292Z,0
2018-12-17T03:52:08.839Z,0
2018-12-17T03:52:49.378Z,0
2018-12-17T03:53:29.937Z,0
2018-12-17T03:54:10.469Z,0
2018-12-17T03:54:51.024Z,0
2018-12-17T03:55:31.577Z,0
2018-12-17T03:56:12.210Z,0
2018-12-17T03:56:52.685Z,0
2018-12-17T03:57:33.250Z,0
2018-12-17T03:58:13.798Z,0
2018-12-17T03:58:59.143Z,0
2018-12-17T03:59:34.927Z,0
2018-12-17T04:00:15.497Z,0
2018-12-17T04:00:56.076Z,0
2018-12-17T04:01:36.631Z,0
2018-12-17T04:02:17.222Z,0
2018-12-17T04:02:57.782Z,0
2018-12-17T04:03:38.346Z,0
2018-12-17T04:04:18.911Z,0
2018-12-17T04:04:59.476Z,0
2018-12-17T04:05:40.032Z,0
2018-12-17T04:06:20.595Z,0
2018-12-17T04:07:01.146Z,0
2018-12-17T04:07:41.692Z,0
2018-12-17T04:08:22.243Z,0
2018-12-17T04:09:02.837Z,0
2018-12-17T04:09:43.400Z,0
2018-12-17T04:10:23.957Z,0
2018-12-17T04:11:04.503Z,0
2018-12-17T04:11:45.061Z,0
2018-12-17T04:12:25.614Z,0
2018-12-17T04:13:06.171Z,0
2018-12-17T04:13:46.735Z,0
2018-12-17T04:14:27.282Z,0
2018-12-17T04:15:07.843Z,0
2018-12-17T04:15:48.388Z,0
2018-12-17T04:16:28.933Z,0
2018-12-17T04:17:09.470Z,0
2018-12-17T04:17:50.023Z,0
2018-12-17T04:18:30.576Z,0
2018-12-17T04:19:11.152Z,0
2018-12-17T04:19:51.691Z,0
2018-12-17T04:20:32.251Z,0
2018-12-17T04:21:12.798Z,0
2018-12-17T04:21:53.388Z,0
2018-12-17T04:22:33.948Z,0
2018-12-17T04:23:14.497Z,0
2018-12-17T04:23:55.049Z,0
2018-12-17T04:24:35.619Z,0
2018-12-17T04:25:16.175Z,0
2018-12-17T04:25:56.713Z,0
2018-12-17T04:26:37.268Z,0
2018-12-17T04:27:17.829Z,0
2018-12-17T04:27:58.424Z,0
2018-12-17T04:28:39.019Z,0
2018-12-17T04:29:19.604Z,0
2018-12-17T04:30:00.164Z,0
2018-12-17T04:30:40.762Z,0
2018-12-17T04:31:21.317Z,0
2018-12-17T04:32:01.874Z,0
2018-12-17T04:32:42.420Z,0
2018-12-17T04:33:22.981Z,0
2018-12-17T04:34:03.522Z,0
2018-12-17T04:34:44.083Z,0
2018-12-17T04:35:24.674Z,0
2018-12-17T04:36:05.252Z,0
2018-12-17T04:36:45.803Z,0
2018-12-17T04:37:26.398Z,0
2018-12-17T04:38:06.946Z,0
2018-12-17T04:38:47.533Z,0
2018-12-17T04:39:28.109Z,0
2018-12-17T04:40:08.667Z,0
2018-12-17T04:40:49.219Z,0
2018-12-17T04:41:29.765Z,0
2018-12-17T04:42:10.314Z,0
2018-12-17T04:42:50.878Z,0
2018-12-17T04:43:31.446Z,0
2018-12-17T04:44:12.008Z,0
2018-12-17T04:44:52.559Z,0
2018-12-17T04:45:33.112Z,0
2018-12-17T04:46:13.689Z,0
2018-12-17T04:46:54.253Z,0
2018-12-17T04:47:34.813Z,0
2018-12-17T04:48:15.375Z,0
2018-12-17T04:48:55.923Z,0
2018-12-17T04:49:36.489Z,0
2018-12-17T04:50:17.053Z,0
2018-12-17T04:50:57.635Z,0
2018-12-17T04:51:38.222Z,0
2018-12-17T04:52:18.786Z,0
2018-12-17T04:52:59.339Z,0
2018-12-17T04:53:39.896Z,0
2018-12-17T04:54:20.461Z,0
2018-12-17T04:55:01.023Z,0
2018-12-17T04:55:41.575Z,0
2018-12-17T04:56:22.120Z,0
2018-12-17T04:57:02.690Z,0
2018-12-17T04:57:43.244Z,0
2018-12-17T04:58:23.798Z,0
2018-12-17T04:59:04.349Z,0
2018-12-17T04:59:44.896Z,0
2018-12-17T05:00:25.451Z,0
2018-12-17T05:01:06.039Z,0
2018-12-17T05:01:46.569Z,0
2018-12-17T05:02:27.139Z,0
2018-12-17T05:03:07.686Z,0
2018-12-17T05:03:48.255Z,0
2018-12-17T05:04:28.833Z,0
2018-12-17T05:05:09.382Z,0
2018-12-17T05:05:49.964Z,0
2018-12-17T05:06:30.546Z,0
2018-12-17T05:07:11.103Z,0
2018-12-17T05:07:51.666Z,0
2018-12-17T05:08:32.220Z,0
2018-12-17T05:09:12.778Z,0
2018-12-17T05:09:53.323Z,0
2018-12-17T05:10:33.887Z,0
2018-12-17T05:11:14.461Z,0
2018-12-17T05:11:55.037Z,0
2018-12-17T05:12:35.585Z,0
2018-12-17T05:13:16.172Z,0
2018-12-17T05:13:56.743Z,0
2018-12-17T05:14:37.358Z,0
2018-12-17T05:15:17.876Z,0
2018-12-17T05:15:58.483Z,0
2018-12-17T05:16:39.019Z,0
2018-12-17T05:17:19.570Z,0
2018-12-17T05:18:00.141Z,0
2018-12-17T05:18:40.720Z,0
2018-12-17T05:19:21.335Z,0
2018-12-17T05:20:01.906Z,0
2018-12-17T05:20:42.457Z,0
2018-12-17T05:21:23.023Z,0
2018-12-17T05:22:03.566Z,0
2018-12-17T05:22:44.201Z,0
2018-12-17T05:23:24.720Z,0
2018-12-17T05:24:05.734Z,0
2018-12-17T05:24:46.455Z,0
2018-12-17T05:25:27.023Z,0
2018-12-17T05:26:07.735Z,0
2018-12-17T05:26:48.515Z,0
2018-12-17T05:27:29.125Z,0
2018-12-17T05:28:09.785Z,0
2018-12-17T05:28:50.418Z,0
2018-12-17T05:29:31.378Z,0
2018-12-17T05:30:12.088Z,0
2018-12-17T05:30:53.344Z,0
2018-12-17T05:31:34.141Z,0
2018-12-17T05:32:15.647Z,0
2018-12-17T05:32:56.235Z,0
2018-12-17T05:33:36.799Z,0
2018-12-17T05:34:17.355Z,0
2018-12-17T05:34:58.134Z,0
2018-12-17T05:35:38.712Z,0
2018-12-17T05:36:19.275Z,0
2018-12-17T05:37:00.896Z,0
2018-12-17T05:37:41.545Z,0
2018-12-17T05:38:22.212Z,0
2018-12-17T05:39:02.901Z,0
2018-12-17T05:39:43.625Z,0
2018-12-17T05:40:24.423Z,0
2018-12-17T05:41:05.050Z,0
2018-12-17T05:41:45.827Z,0
2018-12-17T05:42:26.384Z,0
2018-12-17T05:43:07.224Z,0
2018-12-17T05:43:47.875Z,0
2018-12-17T05:44:28.519Z,0
2018-12-17T05:45:09.088Z,0
2018-12-17T05:45:49.646Z,0
2018-12-17T05:46:30.192Z,0
2018-12-17T05:47:10.736Z,0
2018-12-17T05:47:51.497Z,0
2018-12-17T05:48:32.160Z,0
2018-12-17T05:49:12.750Z,0
2018-12-17T05:49:53.316Z,0
2018-12-17T05:50:33.879Z,0
2018-12-17T05:51:14.426Z,0
2018-12-17T05:51:55.164Z,0
2018-12-17T05:52:35.894Z,0
2018-12-17T05:53:16.833Z,0
2018-12-17T05:53:57.464Z,0
2018-12-17T05:54:38.122Z,0
2018-12-17T05:55:18.880Z,0
2018-12-17T05:55:59.822Z,0
2018-12-17T05:56:40.695Z,0
2018-12-17T05:57:21.560Z,0
2018-12-17T05:58:02.699Z,0
2018-12-17T05:58:43.361Z,0
2018-12-17T05:59:28.517Z,0
2018-12-17T06:00:04.841Z,0
2018-12-17T06:00:45.645Z,0
2018-12-17T06:01:26.574Z,0
2018-12-17T06:02:07.399Z,0
2018-12-17T06:02:48.089Z,0
2018-12-17T06:03:28.629Z,0
2018-12-17T06:04:09.191Z,0
2018-12-17T06:04:51.033Z,0
2018-12-17T06:05:31.875Z,0
2018-12-17T06:06:12.924Z,0
2018-12-17T06:06:53.826Z,0
2018-12-17T06:07:34.400Z,0
2018-12-17T06:08:15.053Z,0
2018-12-17T06:08:55.665Z,0
2018-12-17T06:09:36.227Z,0
2018-12-17T06:10:16.807Z,0
2018-12-17T06:10:57.380Z,0
2018-12-17T06:11:37.936Z,0
2018-12-17T06:12:18.478Z,0
2018-12-17T06:12:59.030Z,0
2018-12-17T06:13:39.579Z,0
2018-12-17T06:14:20.149Z,0
2018-12-17T06:15:00.698Z,0
2018-12-17T06:15:41.265Z,0
2018-12-17T06:16:21.857Z,0
2018-12-17T06:17:02.412Z,0
2018-12-17T06:17:42.971Z,0
2018-12-17T06:18:23.535Z,0
2018-12-17T06:19:04.080Z,0
2018-12-17T06:19:44.648Z,0
2018-12-17T06:20:25.214Z,0
2018-12-17T06:21:05.792Z,0
2018-12-17T06:21:46.345Z,0
2018-12-17T06:22:26.891Z,0
2018-12-17T06:23:07.455Z,0
2018-12-17T06:23:48.010Z,0
2018-12-17T06:24:28.566Z,0
2018-12-17T06:25:09.131Z,0
2018-12-17T06:25:49.696Z,0
2018-12-17T06:26:30.255Z,0
2018-12-17T06:27:10.820Z,0
2018-12-17T06:27:51.366Z,0
2018-12-17T06:28:31.945Z,0
2018-12-17T06:29:12.496Z,0
2018-12-17T06:29:53.073Z,0
2018-12-17T06:30:33.636Z,0
2018-12-17T06:31:14.185Z,0
2018-12-17T06:31:54.752Z,0
2018-12-17T06:32:39.891Z,0
2018-12-17T06:33:20.468Z,0
2018-12-17T06:34:01.024Z,0
2018-12-17T06:34:41.805Z,0
2018-12-17T06:35:22.376Z,0
2018-12-17T06:36:02.932Z,0
2018-12-17T06:36:43.547Z,0
2018-12-17T06:37:24.191Z,0
2018-12-17T06:38:04.822Z,0
2018-12-17T06:38:45.502Z,0
2018-12-17T06:39:26.060Z,0
2018-12-17T06:40:10.100Z,0
2018-12-17T06:40:47.173Z,0
2018-12-17T06:41:27.741Z,0
2018-12-17T06:42:08.306Z,0
2018-12-17T06:42:48.893Z,0
2018-12-17T06:43:29.461Z,0
2018-12-17T06:44:10.008Z,0
2018-12-17T06:44:50.619Z,0
2018-12-17T06:45:31.169Z,0
2018-12-17T06:46:11.728Z,0
2018-12-17T06:46:52.301Z,0
2018-12-17T06:47:32.877Z,0
2018-12-17T06:48:17.000Z,0
2018-12-17T06:48:54.008Z,0
2018-12-17T06:49:34.553Z,0
2018-12-17T06:50:15.138Z,0
2018-12-17T06:50:55.677Z,0
2018-12-17T06:51:36.225Z,0
2018-12-17T06:52:16.787Z,0
2018-12-17T06:52:57.356Z,0
2018-12-17T06:53:37.911Z,0
2018-12-17T06:54:18.478Z,0
2018-12-17T06:54:59.037Z,0
2018-12-17T06:55:39.594Z,0
2018-12-17T06:56:20.133Z,0
2018-12-17T06:57:00.721Z,0
2018-12-17T06:57:41.267Z,0
2018-12-17T06:58:21.813Z,0
2018-12-17T06:59:02.373Z,0
2018-12-17T06:59:43.094Z,0
2018-12-17T07:00:23.494Z,0
2018-12-17T07:01:04.060Z,0
2018-12-17T07:01:44.619Z,0
2018-12-17T07:02:25.173Z,0
2018-12-17T07:03:05.758Z,0
2018-12-17T07:03:46.379Z,0
2018-12-17T07:04:27.023Z,0
2018-12-17T07:05:07.605Z,0
2018-12-17T07:05:48.158Z,0
2018-12-17T07:06:28.785Z,0
2018-12-17T07:07:09.334Z,0
2018-12-17T07:07:49.885Z,0
2018-12-17T07:08:30.464Z,0
2018-12-17T07:09:11.133Z,0
2018-12-17T07:09:51.678Z,0
2018-12-17T07:10:32.275Z,0
2018-12-17T07:11:12.777Z,0
2018-12-17T07:11:53.355Z,0
2018-12-17T07:12:33.932Z,0
2018-12-17T07:13:14.501Z,0
2018-12-17T07:13:55.069Z,0
2018-12-17T07:14:36.537Z,0
2018-12-17T07:15:16.271Z,0
2018-12-17T07:15:56.790Z,0
2018-12-17T07:16:37.341Z,0
2018-12-17T07:17:17.935Z,0
2018-12-17T07:17:58.557Z,0
2018-12-17T07:18:39.314Z,0
2018-12-17T07:19:19.879Z,0
2018-12-17T07:20:00.418Z,0
2018-12-17T07:20:40.986Z,0
2018-12-17T07:21:21.540Z,0
2018-12-17T07:22:02.089Z,0
2018-12-17T07:22:42.650Z,0
2018-12-17T07:23:23.265Z,0
2018-12-17T07:24:03.841Z,0
2018-12-17T07:24:44.543Z,0
2018-12-17T07:25:25.084Z,0
2018-12-17T07:26:05.632Z,0
2018-12-17T07:26:46.186Z,0
2018-12-17T07:27:26.755Z,0
2018-12-17T07:28:07.328Z,0
2018-12-17T07:28:47.889Z,0
2018-12-17T07:29:28.604Z,0
2018-12-17T07:30:09.148Z,0
2018-12-17T07:30:49.716Z,0
2018-12-17T07:31:30.357Z,0
2018-12-17T07:32:10.912Z,0
2018-12-17T07:32:51.515Z,0
2018-12-17T07:33:32.388Z,0
2018-12-17T07:34:13.138Z,0
2018-12-17T07:34:53.925Z,0
2018-12-17T07:35:34.504Z,0
2018-12-17T07:36:15.125Z,0
2018-12-17T07:36:55.623Z,0
2018-12-17T07:37:36.218Z,0
2018-12-17T07:38:16.771Z,0
2018-12-17T07:38:57.327Z,0
2018-12-17T07:39:38.050Z,0
2018-12-17T07:40:18.634Z,0
2018-12-17T07:40:59.320Z,0
2018-12-17T07:41:40.805Z,0
2018-12-17T07:42:20.852Z,5
2018-12-17T07:43:01.598Z,5
2018-12-17T07:43:42.354Z,5
2018-12-17T07:44:22.923Z,5
2018-12-17T07:45:05.197Z,5
2018-12-17T07:45:44.124Z,5
2018-12-17T07:46:25.183Z,5
2018-12-17T07:47:05.821Z,5
2018-12-17T07:47:46.385Z,5
2018-12-17T07:48:27.020Z,5
2018-12-17T07:49:08.560Z,5
2018-12-17T07:49:49.370Z,5
2018-12-17T07:50:30.043Z,5
2018-12-17T07:51:10.587Z,5
2018-12-17T07:51:51.142Z,5
2018-12-17T07:52:31.842Z,5
2018-12-17T07:53:12.655Z,5
2018-12-17T07:53:53.267Z,5
2018-12-17T07:54:34.106Z,5
2018-12-17T07:55:14.691Z,5
2018-12-17T07:55:55.274Z,5
2018-12-17T07:56:35.870Z,5
2018-12-17T07:57:16.439Z,5
2018-12-17T07:57:57.001Z,5
2018-12-17T07:58:37.613Z,5
2018-12-17T07:59:18.203Z,10
2018-12-17T07:59:58.795Z,10
2018-12-17T08:00:39.364Z,10
2018-12-17T08:01:19.932Z,10
2018-12-17T08:02:00.514Z,10
2018-12-17T08:02:41.104Z,10
2018-12-17T08:03:21.644Z,10
2018-12-17T08:04:02.217Z,10
2018-12-17T08:04:42.762Z,10
2018-12-17T08:05:23.338Z,10
2018-12-17T08:06:03.903Z,10
2018-12-17T08:06:44.471Z,10
2018-12-17T08:07:25.303Z,10
2018-12-17T08:08:05.808Z,10
2018-12-17T08:08:46.413Z,10
2018-12-17T08:09:26.985Z,10
2018-12-17T08:10:07.533Z,10
2018-12-17T08:10:48.221Z,10
2018-12-17T08:11:28.935Z,5
2018-12-17T08:12:09.512Z,5
2018-12-17T08:12:50.032Z,5
2018-12-17T08:13:30.588Z,10
2018-12-17T08:14:11.128Z,10
2018-12-17T08:14:51.698Z,10
2018-12-17T08:15:32.249Z,10
2018-12-17T08:16:12.833Z,10
2018-12-17T08:16:53.392Z,10
2018-12-17T08:17:33.994Z,10
2018-12-17T08:18:14.597Z,10
2018-12-17T08:18:55.155Z,10
2018-12-17T08:19:35.751Z,10
2018-12-17T08:20:16.337Z,10
2018-12-17T08:20:56.900Z,10
2018-12-17T08:21:37.470Z,10
2018-12-17T08:22:18.057Z,10
2018-12-17T08:22:58.619Z,10
2018-12-17T08:23:39.178Z,10
2018-12-17T08:24:19.718Z,10
2018-12-17T08:25:02.206Z,10
2018-12-17T08:25:42.772Z,10
2018-12-17T08:26:23.347Z,10
2018-12-17T08:27:03.949Z,10
2018-12-17T08:27:44.737Z,10
2018-12-17T08:28:25.211Z,10
2018-12-17T08:29:05.802Z,10
2018-12-17T08:29:46.389Z,15
2018-12-17T08:30:27.143Z,15
2018-12-17T08:31:07.712Z,15
2018-12-17T08:31:48.501Z,15
2018-12-17T08:32:29.079Z,15
2018-12-17T08:33:09.653Z,15
2018-12-17T08:33:50.218Z,15
2018-12-17T08:34:30.787Z,15
2018-12-17T08:35:11.354Z,15
2018-12-17T08:35:51.904Z,15
2018-12-17T08:36:32.455Z,15
2018-12-17T08:37:13.019Z,15
2018-12-17T08:37:53.594Z,20
2018-12-17T08:38:34.197Z,20
2018-12-17T08:39:14.763Z,15
2018-12-17T08:39:55.317Z,15
2018-12-17T08:40:35.878Z,20
2018-12-17T08:41:16.476Z,20
2018-12-17T08:41:57.021Z,20
2018-12-17T08:42:37.595Z,20
2018-12-17T08:43:18.164Z,20
2018-12-17T08:43:58.735Z,20
2018-12-17T08:44:39.314Z,20
2018-12-17T08:45:19.901Z,20
2018-12-17T08:46:00.441Z,20
2018-12-17T08:46:41.002Z,20
2018-12-17T08:47:21.570Z,20
2018-12-17T08:48:02.142Z,15
2018-12-17T08:48:42.702Z,15
2018-12-17T08:49:23.248Z,15
2018-12-17T08:50:03.811Z,15
2018-12-17T08:50:44.374Z,15
2018-12-17T08:51:24.955Z,15
2018-12-17T08:52:05.511Z,15
2018-12-17T08:52:46.056Z,15
2018-12-17T08:53:26.633Z,20
2018-12-17T08:54:07.209Z,20
2018-12-17T08:54:47.761Z,20
2018-12-17T08:55:28.333Z,20
2018-12-17T08:56:08.894Z,20
2018-12-17T08:56:49.486Z,20
2018-12-17T08:57:30.023Z,20
2018-12-17T08:58:10.622Z,20
2018-12-17T08:58:51.157Z,20
2018-12-17T08:59:31.760Z,20
2018-12-17T09:00:12.330Z,20
2018-12-17T09:00:52.918Z,20
2018-12-17T09:01:33.491Z,20
2018-12-17T09:02:14.040Z,25
2018-12-17T09:02:54.600Z,25
2018-12-17T09:03:35.174Z,30
2018-12-17T09:04:15.717Z,30
2018-12-17T09:04:56.279Z,30
2018-12-17T09:05:36.847Z,35
2018-12-17T09:06:17.398Z,35
2018-12-17T09:06:57.940Z,35
2018-12-17T09:07:38.482Z,30
2018-12-17T09:08:19.058Z,30
2018-12-17T09:08:59.608Z,30
2018-12-17T09:09:40.184Z,30
2018-12-17T09:10:20.742Z,30
2018-12-17T09:11:02.474Z,30
2018-12-17T09:11:41.860Z,30
2018-12-17T09:12:22.411Z,30
2018-12-17T09:13:02.962Z,30
2018-12-17T09:13:43.527Z,25
2018-12-17T09:14:24.085Z,25
2018-12-17T09:15:04.660Z,25
2018-12-17T09:15:45.238Z,25
2018-12-17T09:16:25.876Z,25
2018-12-17T09:17:06.497Z,25
2018-12-17T09:17:47.109Z,25
2018-12-17T09:18:27.916Z,25
2018-12-17T09:19:08.455Z,25
2018-12-17T09:19:49.037Z,25
2018-12-17T09:20:29.590Z,25
2018-12-17T09:21:10.174Z,25
2018-12-17T09:21:50.759Z,25
2018-12-17T09:22:31.291Z,20
2018-12-17T09:23:11.921Z,20
2018-12-17T09:23:52.500Z,20
2018-12-17T09:24:33.793Z,25
2018-12-17T09:25:14.824Z,25
2018-12-17T09:25:55.392Z,25
2018-12-17T09:26:36.024Z,25
2018-12-17T09:27:16.611Z,25
2018-12-17T09:27:57.165Z,20
2018-12-17T09:28:37.838Z,20
2018-12-17T09:29:18.399Z,20
2018-12-17T09:29:58.968Z,20
2018-12-17T09:30:41.444Z,20
2018-12-17T09:31:20.087Z,20
2018-12-17T09:32:00.641Z,20
2018-12-17T09:32:42.908Z,20
2018-12-17T09:33:23.467Z,20
2018-12-17T09:34:04.055Z,20
2018-12-17T09:34:44.655Z,20
2018-12-17T09:35:25.339Z,25
2018-12-17T09:36:05.897Z,25
2018-12-17T09:36:46.463Z,25
2018-12-17T09:37:27.093Z,25
2018-12-17T09:38:07.649Z,25
2018-12-17T09:38:48.225Z,25
2018-12-17T09:39:28.777Z,25
2018-12-17T09:40:09.349Z,25
2018-12-17T09:40:49.904Z,25
2018-12-17T09:41:30.485Z,25
2018-12-17T09:42:11.038Z,25
2018-12-17T09:42:51.582Z,25
2018-12-17T09:43:32.147Z,25
2018-12-17T09:44:12.729Z,25
2018-12-17T09:44:53.349Z,25
2018-12-17T09:45:33.903Z,25
2018-12-17T09:46:14.479Z,25
2018-12-17T09:46:55.060Z,25
2018-12-17T09:47:35.629Z,25
2018-12-17T09:48:16.323Z,30
2018-12-17T09:48:56.894Z,30
2018-12-17T09:49:38.372Z,30
2018-12-17T09:50:18.944Z,30
2018-12-17T09:50:59.500Z,30
2018-12-17T09:51:40.331Z,30
2018-12-17T09:52:20.768Z,30
2018-12-17T09:53:01.327Z,30
2018-12-17T09:53:41.889Z,30
2018-12-17T09:54:22.516Z,30
2018-12-17T09:55:03.069Z,30
2018-12-17T09:55:43.612Z,30
2018-12-17T09:56:24.209Z,30
2018-12-17T09:57:04.778Z,30